createdAt,value
2023-03-26T00:00:42.973Z,90.00
2023-03-26T00:03:18.040Z,90.28
2023-03-26T00:06:02.578Z,89.67
2023-03-26T00:08:36.279Z,89.21
2023-03-26T00:11:11.646Z,89.48
2023-03-26T00:13:44.661Z,88.46
2023-03-26T00:16:18.977Z,88.55
2023-03-26T00:18:52.736Z,88.16
2023-03-26T00:21:27.161Z,87.94
2023-03-26T00:24:03.635Z,88.29
2023-03-26T00:26:37.808Z,87.22
2023-03-26T00:29:12.761Z,89.04
2023-03-26T00:31:45.605Z,87.41
2023-03-26T00:34:17.961Z,85.62
2023-03-26T00:36:53.646Z,85.28
2023-03-26T00:39:26.665Z,82.72
2023-03-26T00:42:06.122Z,83.78
2023-03-26T00:44:38.470Z,81.55
2023-03-26T00:47:10.821Z,81.94
2023-03-26T00:49:46.107Z,82.08
2023-03-26T00:52:18.906Z,81.76
2023-03-26T00:54:51.970Z,81.35
2023-03-26T00:57:35.616Z,81.29
2023-03-26T01:00:16.099Z,80.39
2023-03-26T01:02:48.565Z,80.95
2023-03-26T01:05:45.199Z,80.14
2023-03-26T01:08:26.491Z,81.26
2023-03-26T01:11:02.502Z,81.87
2023-03-26T01:13:37.715Z,81.39
2023-03-26T01:16:24.724Z,80.06
2023-03-26T01:18:58.142Z,81.12
2023-03-26T01:21:31.050Z,82.33
2023-03-26T01:24:06.015Z,82.29
2023-03-26T01:27:09.497Z,82.46
2023-03-26T01:29:46.301Z,84.50
2023-03-26T01:32:30.204Z,84.38
2023-03-26T01:35:18.304Z,84.12
2023-03-26T01:38:01.562Z,83.69
2023-03-26T01:40:41.954Z,85.25
2023-03-26T01:43:25.767Z,86.05
2023-03-26T01:46:01.553Z,86.50
2023-03-26T01:48:36.404Z,83.55
2023-03-26T01:51:10.349Z,83.98
2023-03-26T01:53:46.325Z,83.08
2023-03-26T01:56:25.369Z,82.95
2023-03-26T01:59:09.001Z,82.63
2023-03-26T02:01:47.348Z,82.52
2023-03-26T02:04:25.660Z,82.30
2023-03-26T02:07:05.022Z,82.50
2023-03-26T02:09:45.154Z,83.34
2023-03-26T02:12:21.493Z,83.08
2023-03-26T02:14:53.861Z,83.75
2023-03-26T02:17:29.407Z,83.58
2023-03-26T02:20:10.086Z,83.11
2023-03-26T02:22:45.153Z,83.41
2023-03-26T02:25:19.948Z,83.24
2023-03-26T02:27:54.186Z,84.37
2023-03-26T02:30:28.797Z,83.42
2023-03-26T02:33:03.677Z,84.69
2023-03-26T02:35:45.193Z,83.13
2023-03-26T02:38:18.761Z,83.07
2023-03-26T02:40:51.417Z,84.73
2023-03-26T02:43:25.849Z,84.11
2023-03-26T02:45:58.663Z,85.19
2023-03-26T02:48:50.446Z,85.00
2023-03-26T02:51:29.078Z,85.95
2023-03-26T02:54:10.143Z,85.73
2023-03-26T02:57:00.489Z,84.58
2023-03-26T02:59:52.539Z,85.64
2023-03-26T03:02:48.219Z,86.93
2023-03-26T03:05:37.340Z,87.85
2023-03-26T03:08:33.342Z,88.65
2023-03-26T03:11:35.770Z,88.90
2023-03-26T03:14:08.110Z,89.61
2023-03-26T03:16:41.685Z,90.32
2023-03-26T03:19:15.931Z,90.24
2023-03-26T03:21:48.268Z,90.38
2023-03-26T03:24:20.625Z,90.98
2023-03-26T03:26:56.098Z,90.26
2023-03-26T03:29:38.423Z,91.42
2023-03-26T03:32:31.365Z,91.81
2023-03-26T03:35:08.298Z,91.96
2023-03-26T03:37:41.228Z,92.68
2023-03-26T03:40:14.652Z,93.11
2023-03-26T03:42:47.465Z,93.28
2023-03-26T03:45:27.298Z,91.44
2023-03-26T03:48:27.071Z,90.79
2023-03-26T03:50:59.437Z,91.19
2023-03-26T03:53:36.373Z,91.10
2023-03-26T03:56:09.949Z,91.67
2023-03-26T03:59:05.130Z,91.22
2023-03-26T04:01:42.480Z,91.62
2023-03-26T04:04:23.907Z,91.29
2023-03-26T04:07:07.855Z,90.68
2023-03-26T04:10:09.844Z,91.88
2023-03-26T04:13:00.901Z,92.10
2023-03-26T04:15:51.790Z,93.82
2023-03-26T04:18:25.868Z,94.32
2023-03-26T04:21:02.083Z,94.18
2023-03-26T04:23:36.475Z,94.46
2023-03-26T04:26:19.121Z,94.09
2023-03-26T04:29:16.194Z,94.98
2023-03-26T04:31:50.614Z,94.54
2023-03-26T04:34:24.617Z,94.09
2023-03-26T04:37:24.178Z,92.88
2023-03-26T04:40:08.706Z,93.12
2023-03-26T04:42:45.338Z,93.46
2023-03-26T04:45:24.684Z,89.13
2023-03-26T04:48:01.990Z,90.60
2023-03-26T04:50:34.652Z,90.44
2023-03-26T04:53:12.859Z,91.13
2023-03-26T04:56:30.360Z,90.35
2023-03-26T04:59:25.447Z,90.05
2023-03-26T05:02:00.845Z,89.91
2023-03-26T05:04:39.241Z,88.76
2023-03-26T05:07:16.359Z,88.51
2023-03-26T05:09:53.553Z,87.77
2023-03-26T05:12:38.900Z,87.57
2023-03-26T05:15:15.817Z,87.49
2023-03-26T05:18:03.416Z,86.74
2023-03-26T05:20:47.277Z,87.50
2023-03-26T05:23:19.863Z,86.19
2023-03-26T05:26:01.685Z,86.94
2023-03-26T05:28:34.180Z,85.56
2023-03-26T05:31:14.822Z,85.16
2023-03-26T05:33:51.548Z,86.28
2023-03-26T05:36:24.305Z,85.03
2023-03-26T05:39:08.758Z,84.11
2023-03-26T05:42:07.013Z,84.03
2023-03-26T05:44:54.989Z,84.05
2023-03-26T05:47:32.184Z,83.51
2023-03-26T05:50:06.794Z,84.37
2023-03-26T05:52:40.105Z,83.40
2023-03-26T05:55:32.690Z,84.21
2023-03-26T05:58:24.682Z,81.25
2023-03-26T06:01:29.415Z,82.29
2023-03-26T06:04:20.837Z,80.61
2023-03-26T06:07:09.382Z,80.55
2023-03-26T06:09:44.075Z,80.53
2023-03-26T06:12:16.583Z,81.12
2023-03-26T06:14:50.650Z,81.73
2023-03-26T06:17:28.475Z,80.37
2023-03-26T06:20:12.207Z,79.97
2023-03-26T06:22:47.171Z,79.60
2023-03-26T06:25:25.361Z,79.10
2023-03-26T06:28:09.986Z,77.97
2023-03-26T06:31:10.317Z,78.82
2023-03-26T06:33:48.275Z,77.65
2023-03-26T06:36:20.701Z,77.66
2023-03-26T06:38:55.704Z,75.13
2023-03-26T06:41:34.572Z,75.77
2023-03-26T06:44:29.195Z,74.65
2023-03-26T06:47:20.608Z,73.14
2023-03-26T06:49:55.869Z,72.23
2023-03-26T06:52:44.682Z,70.96
2023-03-26T06:55:39.933Z,70.68
2023-03-26T06:58:26.332Z,67.68
2023-03-26T07:01:02.020Z,66.35
2023-03-26T07:03:53.832Z,66.82
2023-03-26T07:06:45.256Z,66.37
2023-03-26T07:09:36.357Z,63.46
2023-03-26T07:12:27.575Z,62.65
2023-03-26T07:15:24.094Z,62.01
2023-03-26T07:18:19.368Z,63.33
2023-03-26T07:20:54.012Z,60.71
2023-03-26T07:23:28.568Z,60.11
2023-03-26T07:26:25.896Z,63.16
2023-03-26T07:29:15.717Z,62.85
2023-03-26T07:32:18.465Z,58.45
2023-03-26T07:35:25.948Z,57.20
2023-03-26T07:38:33.077Z,57.57
2023-03-26T07:41:39.923Z,55.75
2023-03-26T07:44:50.433Z,55.52
2023-03-26T07:47:44.289Z,55.39
2023-03-26T07:50:18.981Z,55.18
2023-03-26T07:53:10.773Z,56.18
2023-03-26T07:56:11.530Z,54.24
2023-03-26T07:59:13.681Z,51.34
2023-03-26T08:02:40.882Z,52.02
2023-03-26T08:05:34.710Z,53.09
2023-03-26T08:08:36.753Z,54.81
2023-03-26T08:11:39.194Z,53.01
2023-03-26T08:14:24.174Z,53.90
2023-03-26T08:17:06.085Z,52.26
2023-03-26T08:19:58.254Z,50.96
2023-03-26T08:22:36.037Z,48.66
2023-03-26T08:25:27.224Z,49.47
2023-03-26T08:28:26.079Z,48.26
2023-03-26T08:31:02.160Z,47.98
2023-03-26T08:33:37.755Z,46.83
2023-03-26T08:36:10.828Z,47.09
2023-03-26T08:38:44.082Z,46.02
2023-03-26T08:41:46.913Z,45.49
2023-03-26T08:44:58.680Z,45.45
2023-03-26T08:48:07.338Z,43.49
2023-03-26T08:51:16.413Z,43.64
2023-03-26T08:54:18.772Z,43.34
2023-03-26T08:57:01.378Z,43.50
2023-03-26T09:00:01.316Z,42.86
2023-03-26T09:03:14.448Z,43.76
2023-03-26T09:06:24.836Z,41.34
2023-03-26T09:09:35.656Z,42.04
2023-03-26T09:12:36.355Z,40.57
2023-03-26T09:15:59.774Z,41.90
2023-03-26T09:19:08.040Z,40.11
2023-03-26T09:22:07.276Z,38.21
2023-03-26T09:25:13.244Z,39.20
2023-03-26T09:28:06.708Z,41.77
2023-03-26T09:31:03.171Z,40.76
2023-03-26T09:33:55.699Z,41.60
2023-03-26T09:36:54.162Z,41.07
2023-03-26T09:39:37.181Z,39.39
2023-03-26T09:42:21.280Z,39.90
2023-03-26T09:45:31.672Z,39.67
2023-03-26T09:48:28.514Z,39.82
2023-03-26T09:51:12.929Z,39.47
2023-03-26T09:54:02.910Z,39.73
2023-03-26T09:56:46.813Z,38.33
2023-03-26T09:59:36.994Z,38.09
2023-03-26T10:02:45.877Z,36.01
2023-03-26T10:05:44.309Z,35.21
2023-03-26T10:08:35.132Z,35.90
2023-03-26T10:11:17.201Z,35.93
2023-03-26T10:14:04.941Z,35.24
2023-03-26T10:16:47.463Z,32.15
2023-03-26T10:19:31.107Z,33.24
2023-03-26T10:22:13.930Z,32.70
2023-03-26T10:25:13.001Z,32.66
2023-03-26T10:28:00.128Z,32.51
2023-03-26T10:31:00.467Z,34.46
2023-03-26T10:33:41.845Z,34.15
2023-03-26T10:36:28.896Z,33.12
2023-03-26T10:39:37.111Z,32.72
2023-03-26T10:42:40.092Z,32.69
2023-03-26T10:45:24.876Z,31.79
2023-03-26T10:48:16.556Z,31.70
2023-03-26T10:50:59.313Z,30.46
2023-03-26T10:53:37.151Z,31.04
2023-03-26T10:56:23.275Z,30.02
2023-03-26T10:58:57.016Z,32.50
2023-03-26T11:01:44.773Z,30.70
2023-03-26T11:04:41.174Z,31.21
2023-03-26T11:07:20.754Z,31.04
2023-03-26T11:10:00.199Z,29.64
2023-03-26T11:12:43.538Z,30.18
2023-03-26T11:15:23.880Z,30.55
2023-03-26T11:18:07.793Z,29.78
2023-03-26T11:20:45.842Z,29.60
2023-03-26T11:23:30.684Z,28.90
2023-03-26T11:26:12.253Z,29.10
2023-03-26T11:29:31.230Z,25.60
2023-03-26T11:32:10.072Z,26.22
2023-03-26T11:34:49.082Z,26.20
2023-03-26T11:37:29.614Z,28.96
2023-03-26T11:40:10.827Z,27.80
2023-03-26T11:42:44.612Z,28.48
2023-03-26T11:45:21.959Z,27.71
2023-03-26T11:48:01.615Z,27.70
2023-03-26T11:50:38.061Z,29.05
2023-03-26T11:53:12.962Z,27.90
2023-03-26T11:55:51.810Z,27.54
2023-03-26T11:58:30.360Z,27.83
2023-03-26T12:01:13.964Z,26.96
2023-03-26T12:03:58.336Z,26.31
2023-03-26T12:06:32.290Z,27.64
2023-03-26T12:09:14.736Z,26.85
2023-03-26T12:11:48.955Z,26.96
2023-03-26T12:14:24.610Z,26.04
2023-03-26T12:16:58.818Z,25.61
2023-03-26T12:19:38.665Z,25.30
2023-03-26T12:22:29.305Z,24.66
2023-03-26T12:25:15.384Z,24.04
2023-03-26T12:27:49.682Z,24.99
2023-03-26T12:30:25.150Z,24.25
2023-03-26T12:33:00.264Z,26.06
2023-03-26T12:35:35.674Z,26.34
2023-03-26T12:38:21.144Z,26.38
2023-03-26T12:44:44.759Z,24.00
2023-03-26T12:44:50.229Z,25.56
2023-03-26T12:47:58.452Z,26.64
2023-03-26T12:50:14.193Z,26.29
2023-03-26T12:53:05.484Z,24.15
2023-03-26T12:55:58.871Z,23.98
2023-03-26T12:58:52.809Z,23.48
2023-03-26T13:01:33.653Z,26.04
2023-03-26T13:04:27.988Z,25.09
2023-03-26T13:07:10.093Z,22.91
2023-03-26T13:09:56.364Z,23.49
2023-03-26T13:12:40.312Z,23.18
2023-03-26T13:15:25.934Z,23.51
2023-03-26T13:18:15.082Z,24.62
2023-03-26T13:20:50.915Z,25.08
2023-03-26T13:23:38.598Z,25.31
2023-03-26T13:26:21.890Z,23.81
2023-03-26T13:29:06.223Z,24.46
2023-03-26T13:31:48.706Z,25.10
2023-03-26T13:34:33.407Z,23.68
2023-03-26T13:37:14.071Z,25.04
2023-03-26T13:39:59.604Z,24.53
2023-03-26T13:42:42.772Z,24.62
2023-03-26T13:45:42.637Z,25.85
2023-03-26T13:48:21.157Z,24.69
2023-03-26T13:51:01.086Z,24.36
2023-03-26T13:53:41.296Z,25.45
2023-03-26T13:56:19.136Z,24.59
2023-03-26T13:58:58.109Z,23.69
2023-03-26T14:01:34.092Z,24.60
2023-03-26T14:04:17.091Z,23.94
2023-03-26T14:06:56.592Z,25.80
2023-03-26T14:09:34.116Z,24.95
2023-03-26T14:12:21.954Z,24.04
2023-03-26T14:15:00.022Z,26.29
2023-03-26T14:17:39.179Z,24.96
2023-03-26T14:20:39.228Z,25.05
2023-03-26T14:23:52.982Z,24.95
2023-03-26T14:26:46.385Z,26.83
2023-03-26T14:29:56.607Z,26.28
2023-03-26T14:32:45.170Z,27.76
2023-03-26T14:35:30.896Z,28.86
2023-03-26T14:38:29.049Z,28.52
2023-03-26T14:41:21.534Z,28.57
2023-03-26T14:44:48.184Z,28.46
2023-03-26T14:47:23.605Z,28.14
2023-03-26T14:50:30.808Z,29.00
2023-03-26T14:53:11.173Z,30.04
2023-03-26T14:56:01.993Z,29.73
2023-03-26T14:59:22.176Z,30.10
2023-03-26T15:02:37.458Z,30.52
2023-03-26T15:05:45.088Z,30.86
2023-03-26T15:08:49.181Z,30.27
2023-03-26T15:11:29.807Z,30.48
2023-03-26T15:14:23.178Z,30.23
2023-03-26T15:17:29.209Z,29.46
2023-03-26T15:20:47.925Z,30.11
2023-03-26T15:23:52.640Z,29.81
2023-03-26T15:27:04.703Z,30.41
2023-03-26T15:30:19.611Z,31.10
2023-03-26T15:33:33.568Z,31.00
2023-03-26T15:36:38.495Z,31.33
2023-03-26T15:39:43.917Z,31.86
2023-03-26T15:42:44.897Z,31.58
2023-03-26T15:45:33.218Z,31.39
2023-03-26T15:48:19.558Z,32.13
2023-03-26T15:50:57.665Z,32.34
2023-03-26T15:53:39.102Z,31.84
2023-03-26T15:56:26.853Z,32.03
2023-03-26T15:59:10.889Z,32.60
2023-03-26T16:02:01.628Z,33.03
2023-03-26T16:04:50.346Z,32.79
2023-03-26T16:07:40.789Z,32.86
2023-03-26T16:10:22.986Z,32.83
2023-03-26T16:13:22.701Z,32.85
2023-03-26T16:15:57.207Z,33.77
2023-03-26T16:18:35.133Z,33.11
2023-03-26T16:21:47.199Z,33.76
2023-03-26T16:24:25.744Z,33.74
2023-03-26T16:27:08.524Z,33.94
2023-03-26T16:30:21.011Z,33.84
2023-03-26T16:32:57.860Z,34.29
2023-03-26T16:36:01.858Z,33.71
2023-03-26T16:38:49.817Z,33.26
2023-03-26T16:41:26.037Z,33.53
2023-03-26T16:44:15.922Z,34.38
2023-03-26T16:46:57.268Z,34.82
2023-03-26T16:49:43.196Z,34.50
2023-03-26T16:52:22.931Z,34.90
2023-03-26T16:55:06.506Z,34.94
2023-03-26T16:57:47.785Z,35.32
2023-03-26T17:00:48.031Z,35.31
2023-03-26T17:03:38.096Z,35.31
2023-03-26T17:06:26.845Z,36.25
2023-03-26T17:09:14.631Z,35.77
2023-03-26T17:11:57.417Z,36.26
2023-03-26T17:14:38.285Z,35.77
2023-03-26T17:17:29.930Z,36.61
2023-03-26T17:20:11.407Z,36.44
2023-03-26T17:22:47.491Z,36.71
2023-03-26T17:25:45.757Z,36.32
2023-03-26T17:28:41.197Z,36.99
2023-03-26T17:34:44.788Z,37.76
2023-03-26T17:37:47.190Z,38.02
2023-03-26T17:40:30.448Z,38.41
2023-03-26T17:43:09.008Z,37.90
2023-03-26T17:45:43.091Z,38.87
2023-03-26T17:48:21.073Z,38.54
2023-03-26T17:50:57.854Z,38.20
2023-03-26T17:53:33.853Z,38.63
2023-03-26T17:56:14.717Z,39.42
2023-03-26T17:58:51.886Z,38.89
2023-03-26T18:01:29.950Z,39.11
2023-03-26T18:04:05.630Z,38.68
2023-03-26T18:06:56.719Z,38.33
2023-03-26T18:09:42.998Z,38.81
2023-03-26T18:12:42.506Z,39.37
2023-03-26T18:15:42.750Z,39.62
2023-03-26T18:18:20.197Z,40.41
2023-03-26T18:20:54.329Z,41.44
2023-03-26T18:23:34.832Z,41.69
2023-03-26T18:26:13.597Z,42.10
2023-03-26T18:28:52.226Z,42.78
2023-03-26T18:31:26.657Z,42.94
2023-03-26T18:34:10.641Z,43.70
2023-03-26T18:36:42.987Z,44.03
2023-03-26T18:39:16.260Z,43.88
2023-03-26T18:41:49.295Z,44.66
2023-03-26T18:44:21.911Z,45.25
2023-03-26T18:46:54.648Z,45.33
2023-03-26T18:49:29.067Z,45.90
2023-03-26T18:52:01.965Z,45.85
2023-03-26T18:54:35.864Z,46.94
2023-03-26T18:57:15.291Z,47.87
2023-03-26T18:59:50.511Z,48.59
2023-03-26T19:02:25.305Z,49.03
2023-03-26T19:04:58.098Z,48.75
2023-03-26T19:07:30.728Z,49.67
2023-03-26T19:10:03.706Z,50.35
2023-03-26T19:12:38.521Z,50.15
2023-03-26T19:15:14.188Z,50.65
2023-03-26T19:17:50.702Z,51.49
2023-03-26T19:20:25.758Z,51.22
2023-03-26T19:22:58.691Z,51.47
2023-03-26T19:25:36.090Z,50.07
2023-03-26T19:28:16.400Z,50.20
2023-03-26T19:30:53.353Z,50.58
2023-03-26T19:33:33.521Z,51.72
2023-03-26T19:36:17.793Z,51.61
2023-03-26T19:38:52.229Z,52.65
2023-03-26T19:41:31.788Z,52.07
2023-03-26T19:44:19.028Z,52.43
2023-03-26T19:46:53.390Z,52.90
2023-03-26T19:49:29.634Z,54.32
2023-03-26T19:52:12.731Z,53.86
2023-03-26T19:55:00.118Z,55.12
2023-03-26T19:57:35.638Z,54.29
2023-03-26T20:00:13.404Z,55.63
2023-03-26T20:02:46.510Z,55.80
2023-03-26T20:05:22.678Z,56.65
2023-03-26T20:07:57.864Z,56.52
2023-03-26T20:10:30.321Z,56.75
2023-03-26T20:13:02.826Z,57.09
2023-03-26T20:15:38.259Z,56.81
2023-03-26T20:18:11.632Z,58.07
2023-03-26T20:20:44.303Z,59.32
2023-03-26T20:23:16.978Z,59.23
2023-03-26T20:25:53.134Z,57.99
2023-03-26T20:28:25.842Z,58.69
2023-03-26T20:30:59.256Z,58.80
2023-03-26T20:33:32.192Z,60.72
2023-03-26T20:36:09.432Z,60.19
2023-03-26T20:38:42.489Z,60.33
2023-03-26T20:41:17.751Z,59.44
2023-03-26T20:43:50.597Z,59.68
2023-03-26T20:46:31.151Z,60.38
2023-03-26T20:49:05.936Z,62.28
2023-03-26T20:51:41.023Z,61.53
2023-03-26T20:54:16.892Z,61.65
2023-03-26T20:56:49.696Z,61.17
2023-03-26T20:59:25.469Z,61.81
2023-03-26T21:01:59.608Z,61.52
2023-03-26T21:04:31.985Z,61.76
2023-03-26T21:07:14.984Z,61.61
2023-03-26T21:09:50.370Z,63.11
2023-03-26T21:12:29.343Z,62.84
2023-03-26T21:15:07.334Z,62.98
2023-03-26T21:17:44.525Z,63.40
2023-03-26T21:20:18.707Z,62.41
2023-03-26T21:22:58.016Z,63.94
2023-03-26T21:25:38.897Z,63.96
2023-03-26T21:28:35.482Z,63.20
2023-03-26T21:31:17.753Z,62.84
2023-03-26T21:33:51.686Z,63.24
2023-03-26T21:36:24.783Z,62.25
2023-03-26T21:38:58.067Z,60.75
2023-03-26T21:41:37.820Z,63.55
2023-03-26T21:44:10.280Z,64.08
2023-03-26T21:46:44.855Z,64.95
2023-03-26T21:49:18.722Z,65.77
2023-03-26T21:51:51.516Z,65.67
2023-03-26T21:54:26.498Z,65.13
2023-03-26T21:57:15.532Z,65.06
2023-03-26T21:59:57.779Z,64.43
2023-03-26T22:02:37.414Z,64.17
2023-03-26T22:05:14.289Z,66.90
2023-03-26T22:07:54.316Z,66.38
2023-03-26T22:10:26.740Z,66.74
2023-03-26T22:12:59.635Z,66.22
2023-03-26T22:15:33.337Z,64.56
2023-03-26T22:18:06.539Z,65.86
2023-03-26T22:20:40.636Z,67.55
2023-03-26T22:23:12.999Z,67.73
2023-03-26T22:25:45.684Z,67.08
2023-03-26T22:28:18.917Z,66.46
2023-03-26T22:30:51.505Z,65.98
2023-03-26T22:33:23.941Z,66.13
2023-03-26T22:35:57.450Z,66.86
2023-03-26T22:38:30.001Z,65.62
2023-03-26T22:41:02.773Z,63.94
2023-03-26T22:43:35.185Z,63.52
2023-03-26T22:46:07.678Z,64.25
2023-03-26T22:48:40.062Z,64.26
2023-03-26T22:51:13.206Z,65.47
2023-03-26T22:53:45.762Z,65.25
2023-03-26T22:56:18.270Z,65.19
2023-03-26T22:58:50.714Z,67.07
2023-03-26T23:01:24.166Z,67.45
2023-03-26T23:03:56.969Z,67.08
2023-03-26T23:06:30.889Z,68.03
2023-03-26T23:09:06.341Z,68.77
2023-03-26T23:11:39.306Z,68.94
2023-03-26T23:14:11.673Z,69.85
2023-03-26T23:16:44.974Z,70.10
2023-03-26T23:19:17.314Z,69.83
2023-03-26T23:21:50.882Z,70.06
2023-03-26T23:24:25.543Z,69.87
2023-03-26T23:26:58.120Z,70.37
2023-03-26T23:29:31.096Z,71.21
2023-03-26T23:32:04.172Z,71.16
2023-03-26T23:34:56.366Z,71.82
2023-03-26T23:37:34.091Z,72.65
2023-03-26T23:40:09.407Z,72.89
2023-03-26T23:42:41.772Z,73.42
2023-03-26T23:45:14.086Z,73.65
2023-03-26T23:47:46.659Z,73.45
2023-03-26T23:50:19.952Z,72.29
2023-03-26T23:52:53.362Z,72.49
2023-03-26T23:55:26.701Z,73.12
2023-03-26T23:57:58.982Z,72.81
